createdAt,value
2023-01-15T00:00:54.936Z,0.00
2023-01-15T00:01:54.925Z,0.00
2023-01-15T00:02:54.923Z,0.00
2023-01-15T00:03:54.937Z,0.00
2023-01-15T00:04:55.158Z,0.00
2023-01-15T00:05:54.856Z,0.00
2023-01-15T00:06:55.118Z,0.00
2023-01-15T00:07:54.853Z,0.00
2023-01-15T00:08:54.841Z,0.00
2023-01-15T00:09:55.496Z,0.00
2023-01-15T00:10:54.807Z,0.00
2023-01-15T00:11:58.703Z,0.00
2023-01-15T00:12:54.787Z,0.00
2023-01-15T00:13:54.768Z,0.00
2023-01-15T00:14:54.739Z,0.00
2023-01-15T00:15:54.899Z,0.00
2023-01-15T00:16:54.724Z,0.00
2023-01-15T00:17:54.719Z,0.00
2023-01-15T00:18:54.981Z,0.00
2023-01-15T00:19:54.951Z,0.00
2023-01-15T00:20:54.949Z,0.00
2023-01-15T00:21:55.449Z,0.00
2023-01-15T00:22:54.660Z,0.00
2023-01-15T00:23:54.620Z,0.00
2023-01-15T00:24:54.624Z,0.00
2023-01-15T00:25:55.412Z,0.00
2023-01-15T00:26:54.870Z,0.00
2023-01-15T00:27:54.621Z,0.00
2023-01-15T00:28:54.561Z,0.00
2023-01-15T00:29:55.363Z,0.00
2023-01-15T00:30:54.558Z,0.00
2023-01-15T00:31:54.521Z,0.00
2023-01-15T00:32:54.540Z,0.00
2023-01-15T00:33:55.216Z,0.00
2023-01-15T00:34:55.699Z,0.00
2023-01-15T00:35:55.232Z,0.00
2023-01-15T00:36:58.385Z,0.00
2023-01-15T00:37:55.773Z,0.00
2023-01-15T00:38:54.851Z,0.00
2023-01-15T00:39:54.468Z,0.00
2023-01-15T00:40:54.416Z,0.00
2023-01-15T00:41:54.400Z,0.00
2023-01-15T00:42:54.863Z,0.00
2023-01-15T00:43:54.723Z,0.00
2023-01-15T00:44:54.395Z,0.00
2023-01-15T00:45:54.396Z,0.00
2023-01-15T00:46:54.330Z,0.00
2023-01-15T00:47:54.346Z,0.00
2023-01-15T00:48:55.278Z,0.00
2023-01-15T00:49:54.583Z,0.00
2023-01-15T00:50:54.277Z,0.00
2023-01-15T00:51:54.367Z,0.00
2023-01-15T00:52:54.267Z,0.00
2023-01-15T00:53:54.249Z,0.00
2023-01-15T00:54:54.498Z,0.00
2023-01-15T00:55:55.008Z,0.00
2023-01-15T00:56:55.021Z,0.00
2023-01-15T00:57:54.317Z,0.00
2023-01-15T00:58:54.195Z,0.00
2023-01-15T00:59:54.169Z,0.00
2023-01-15T01:00:54.168Z,0.00
2023-01-15T01:01:54.239Z,0.00
2023-01-15T01:02:54.149Z,0.00
2023-01-15T01:03:58.324Z,0.00
2023-01-15T01:04:55.901Z,0.00
2023-01-15T01:05:54.095Z,0.00
2023-01-15T01:06:54.774Z,0.00
2023-01-15T01:07:54.098Z,0.00
2023-01-15T01:08:54.053Z,0.00
2023-01-15T01:09:54.166Z,0.00
2023-01-15T01:10:57.892Z,0.00
2023-01-15T01:11:54.292Z,0.00
2023-01-15T01:12:54.012Z,0.00
2023-01-15T01:13:53.993Z,0.00
2023-01-15T01:14:54.036Z,0.00
2023-01-15T01:15:58.978Z,0.00
2023-01-15T01:16:53.946Z,0.00
2023-01-15T01:17:55.745Z,0.00
2023-01-15T01:18:53.937Z,0.00
2023-01-15T01:19:53.925Z,0.00
2023-01-15T01:20:53.916Z,0.00
2023-01-15T01:21:53.918Z,0.00
2023-01-15T01:22:53.886Z,0.00
2023-01-15T01:23:57.926Z,0.00
2023-01-15T01:24:53.865Z,0.00
2023-01-15T01:25:54.130Z,0.00
2023-01-15T01:26:54.800Z,0.00
2023-01-15T01:27:53.937Z,0.00
2023-01-15T01:28:53.798Z,0.00
2023-01-15T01:29:53.798Z,0.00
2023-01-15T01:31:04.813Z,0.00
2023-01-15T01:31:53.770Z,0.00
2023-01-15T01:33:05.250Z,0.00
2023-01-15T01:33:54.071Z,0.00
2023-01-15T01:34:53.724Z,0.00
2023-01-15T01:35:53.719Z,0.00
2023-01-15T01:36:53.702Z,0.00
2023-01-15T01:37:57.603Z,0.00
2023-01-15T01:38:53.671Z,0.00
2023-01-15T01:39:53.781Z,0.00
2023-01-15T01:40:53.661Z,0.00
2023-01-15T01:41:53.651Z,0.00
2023-01-15T01:42:53.631Z,0.00
2023-01-15T01:43:53.613Z,0.00
2023-01-15T01:44:54.555Z,0.00
2023-01-15T01:45:57.909Z,0.00
2023-01-15T01:46:53.591Z,0.00
2023-01-15T01:47:53.856Z,0.00
2023-01-15T01:48:53.544Z,0.00
2023-01-15T01:49:57.489Z,0.00
2023-01-15T01:50:53.526Z,0.00
2023-01-15T01:51:53.557Z,0.00
2023-01-15T01:52:53.515Z,0.00
2023-01-15T01:53:54.196Z,0.00
2023-01-15T01:54:53.475Z,0.00
2023-01-15T01:55:53.466Z,0.00
2023-01-15T01:56:53.434Z,0.00
2023-01-15T01:57:53.746Z,0.00
2023-01-15T01:58:53.415Z,0.00
2023-01-15T01:59:53.408Z,0.00
2023-01-15T02:00:53.415Z,0.00
2023-01-15T02:01:53.442Z,0.00
2023-01-15T02:02:53.390Z,0.00
2023-01-15T02:03:54.336Z,0.00
2023-01-15T02:04:55.127Z,0.00
2023-01-15T02:05:54.569Z,0.00
2023-01-15T02:06:53.310Z,0.00
2023-01-15T02:07:53.304Z,0.00
2023-01-15T02:08:53.968Z,0.00
2023-01-15T02:09:53.294Z,0.00
2023-01-15T02:10:53.269Z,0.00
2023-01-15T02:11:53.268Z,0.00
2023-01-15T02:12:53.230Z,0.00
2023-01-15T02:13:57.222Z,0.00
2023-01-15T02:14:53.204Z,0.00
2023-01-15T02:15:57.601Z,0.00
2023-01-15T02:16:53.181Z,0.00
2023-01-15T02:17:53.871Z,0.00
2023-01-15T02:18:53.153Z,0.00
2023-01-15T02:19:53.141Z,0.00
2023-01-15T02:20:53.140Z,0.00
2023-01-15T02:21:53.172Z,0.00
2023-01-15T02:22:53.125Z,0.00
2023-01-15T02:23:53.106Z,0.00
2023-01-15T02:24:53.088Z,0.00
2023-01-15T02:25:53.091Z,0.00
2023-01-15T02:26:53.067Z,0.00
2023-01-15T02:27:53.757Z,0.00
2023-01-15T02:28:53.017Z,0.00
2023-01-15T02:29:53.037Z,0.00
2023-01-15T02:30:52.995Z,0.00
2023-01-15T02:31:53.823Z,0.00
2023-01-15T02:32:52.983Z,0.00
2023-01-15T02:33:52.995Z,0.00
2023-01-15T02:34:54.248Z,0.00
2023-01-15T02:35:52.931Z,0.00
2023-01-15T02:36:52.933Z,0.00
2023-01-15T02:37:52.919Z,0.00
2023-01-15T02:38:52.894Z,0.00
2023-01-15T02:39:52.937Z,0.00
2023-01-15T02:40:52.876Z,0.00
2023-01-15T02:41:52.860Z,0.00
2023-01-15T02:42:52.843Z,0.00
2023-01-15T02:43:52.853Z,0.00
2023-01-15T02:44:53.780Z,0.00
2023-01-15T02:45:53.179Z,0.00
2023-01-15T02:46:52.792Z,0.00
2023-01-15T02:47:52.805Z,0.00
2023-01-15T02:48:52.791Z,0.00
2023-01-15T02:49:52.771Z,0.00
2023-01-15T02:50:52.734Z,0.00
2023-01-15T02:51:52.780Z,0.00
2023-01-15T02:52:52.990Z,0.00
2023-01-15T02:53:52.720Z,0.00
2023-01-15T02:54:53.465Z,0.00
2023-01-15T02:55:52.691Z,0.00
2023-01-15T02:56:52.928Z,0.00
2023-01-15T02:57:56.585Z,0.00
2023-01-15T02:58:52.645Z,0.00
2023-01-15T02:59:52.638Z,0.00
2023-01-15T03:00:52.632Z,0.00
2023-01-15T03:01:52.781Z,0.00
2023-01-15T03:02:52.702Z,0.00
2023-01-15T03:03:52.634Z,0.00
2023-01-15T03:04:52.561Z,0.00
2023-01-15T03:05:52.816Z,0.00
2023-01-15T03:06:52.804Z,0.00
2023-01-15T03:07:52.521Z,0.00
2023-01-15T03:08:52.800Z,0.00
2023-01-15T03:09:52.597Z,0.00
2023-01-15T03:10:52.495Z,0.00
2023-01-15T03:11:52.461Z,0.00
2023-01-15T03:12:52.457Z,0.00
2023-01-15T03:13:52.438Z,0.00
2023-01-15T03:14:52.454Z,0.00
2023-01-15T03:15:52.448Z,0.00
2023-01-15T03:16:52.436Z,0.00
2023-01-15T03:17:53.366Z,0.00
2023-01-15T03:18:52.385Z,0.00
2023-01-15T03:20:00.864Z,0.00
2023-01-15T03:20:56.952Z,0.00
2023-01-15T03:21:55.803Z,0.00
2023-01-15T03:22:53.299Z,0.00
2023-01-15T03:23:54.458Z,0.00
2023-01-15T03:26:04.957Z,0.00
2023-01-15T03:27:06.296Z,0.00
2023-01-15T03:28:05.592Z,0.00
2023-01-15T03:29:35.342Z,0.00
2023-01-15T03:30:14.235Z,0.00
2023-01-15T03:31:06.714Z,0.00
2023-01-15T03:32:09.423Z,0.00
2023-01-15T03:33:14.490Z,0.00
2023-01-15T03:34:06.034Z,0.00
2023-01-15T03:35:11.367Z,0.00
2023-01-15T03:36:06.718Z,0.00
2023-01-15T03:37:06.174Z,0.00
2023-01-15T03:38:04.796Z,0.00
2023-01-15T03:39:04.929Z,0.00
2023-01-15T03:40:04.754Z,0.00
2023-01-15T03:41:04.726Z,0.00
2023-01-15T03:42:04.846Z,0.00
2023-01-15T03:43:04.763Z,0.00
2023-01-15T03:44:04.917Z,0.00
2023-01-15T03:45:04.863Z,0.00
2023-01-15T03:46:04.997Z,0.00
2023-01-15T03:47:04.945Z,0.00
2023-01-15T03:48:04.944Z,0.00
2023-01-15T03:49:04.628Z,0.00
2023-01-15T03:50:04.635Z,0.00
2023-01-15T03:51:04.923Z,0.00
2023-01-15T03:52:04.570Z,0.00
2023-01-15T03:53:04.849Z,0.00
2023-01-15T03:54:04.866Z,0.00
2023-01-15T03:55:04.806Z,0.00
2023-01-15T03:56:04.830Z,0.00
2023-01-15T03:57:04.611Z,0.00
2023-01-15T03:58:04.489Z,0.00
2023-01-15T03:59:04.479Z,0.00
2023-01-15T04:00:04.473Z,0.00
2023-01-15T04:01:04.538Z,0.00
2023-01-15T04:02:04.847Z,0.00
2023-01-15T04:03:04.453Z,0.00
2023-01-15T04:04:05.315Z,0.00
2023-01-15T04:05:04.652Z,0.00
2023-01-15T04:06:04.430Z,0.00
2023-01-15T04:07:04.397Z,0.00
2023-01-15T04:08:04.393Z,0.00
2023-01-15T04:09:08.207Z,0.00
2023-01-15T04:10:04.614Z,0.00
2023-01-15T04:11:04.347Z,0.00
2023-01-15T04:12:04.320Z,0.00
2023-01-15T04:13:04.337Z,0.00
2023-01-15T04:14:04.415Z,0.00
2023-01-15T04:15:04.550Z,0.00
2023-01-15T04:16:04.318Z,0.00
2023-01-15T04:17:04.263Z,0.00
2023-01-15T04:18:04.263Z,0.00
2023-01-15T04:19:04.232Z,0.00
2023-01-15T04:20:04.260Z,0.00
2023-01-15T04:21:05.506Z,0.00
2023-01-15T04:22:04.207Z,0.00
2023-01-15T04:23:04.204Z,0.00
2023-01-15T04:24:04.196Z,0.00
2023-01-15T04:25:04.435Z,0.00
2023-01-15T04:26:04.200Z,0.00
2023-01-15T04:27:04.136Z,0.00
2023-01-15T04:28:04.145Z,0.00
2023-01-15T04:29:04.125Z,0.00
2023-01-15T04:30:04.126Z,0.00
2023-01-15T04:31:04.107Z,0.00
2023-01-15T04:32:04.191Z,0.00
2023-01-15T04:33:04.828Z,0.00
2023-01-15T04:34:04.080Z,0.00
2023-01-15T04:35:04.039Z,0.00
2023-01-15T04:36:04.881Z,0.00
2023-01-15T04:37:04.013Z,0.00
2023-01-15T04:38:04.044Z,0.00
2023-01-15T04:39:04.016Z,0.00
2023-01-15T04:40:03.995Z,0.00
2023-01-15T04:41:03.975Z,0.00
2023-01-15T04:42:03.973Z,0.00
2023-01-15T04:43:03.936Z,0.00
2023-01-15T04:44:03.977Z,0.00
2023-01-15T04:45:03.922Z,0.00
2023-01-15T04:46:04.237Z,0.00
2023-01-15T04:47:03.941Z,0.00
2023-01-15T04:48:03.943Z,0.00
2023-01-15T04:49:04.622Z,0.00
2023-01-15T04:50:04.245Z,0.00
2023-01-15T04:51:04.117Z,0.00
2023-01-15T04:52:03.866Z,0.00
2023-01-15T04:53:03.816Z,0.00
2023-01-15T04:54:03.829Z,0.00
2023-01-15T04:55:04.078Z,0.00
2023-01-15T04:56:03.813Z,0.00
2023-01-15T04:57:04.052Z,0.00
2023-01-15T04:58:04.039Z,0.00
2023-01-15T04:59:07.747Z,0.00
2023-01-15T05:00:03.763Z,0.00
2023-01-15T05:01:03.805Z,0.00
2023-01-15T05:02:06.345Z,0.00
2023-01-15T05:03:03.727Z,0.00
2023-01-15T05:04:03.753Z,0.00
2023-01-15T05:05:03.676Z,0.00
2023-01-15T05:06:03.683Z,0.00
2023-01-15T05:07:03.657Z,0.00
2023-01-15T05:08:03.667Z,0.00
2023-01-15T05:09:03.629Z,0.00
2023-01-15T05:10:03.647Z,0.00
2023-01-15T05:11:03.608Z,0.00
2023-01-15T05:12:03.626Z,0.00
2023-01-15T05:13:03.578Z,0.00
2023-01-15T05:14:03.613Z,0.00
2023-01-15T05:15:03.848Z,0.00
2023-01-15T05:16:03.597Z,0.00
2023-01-15T05:17:03.531Z,0.00
2023-01-15T05:18:03.534Z,0.00
2023-01-15T05:19:03.532Z,0.00
2023-01-15T05:20:03.550Z,0.00
2023-01-15T05:21:03.742Z,0.00
2023-01-15T05:22:03.461Z,0.00
2023-01-15T05:23:03.463Z,0.00
2023-01-15T05:24:03.445Z,0.00
2023-01-15T05:25:03.428Z,0.00
2023-01-15T05:26:07.471Z,0.00
2023-01-15T05:27:03.667Z,0.00
2023-01-15T05:28:03.400Z,0.00
2023-01-15T05:29:03.651Z,0.00
2023-01-15T05:30:03.363Z,0.00
2023-01-15T05:31:03.387Z,0.00
2023-01-15T05:32:03.392Z,0.00
2023-01-15T05:33:04.348Z,0.00
2023-01-15T05:34:07.205Z,0.00
2023-01-15T05:35:03.309Z,0.00
2023-01-15T05:36:03.313Z,0.00
2023-01-15T05:37:03.276Z,0.00
2023-01-15T05:38:04.243Z,0.00
2023-01-15T05:39:03.253Z,0.00
2023-01-15T05:40:03.250Z,0.00
2023-01-15T05:41:03.245Z,0.00
2023-01-15T05:42:08.226Z,0.00
2023-01-15T05:43:03.196Z,0.00
2023-01-15T05:44:03.536Z,0.00
2023-01-15T05:45:15.877Z,0.00
2023-01-15T05:46:07.149Z,0.00
2023-01-15T05:47:06.984Z,0.00
2023-01-15T05:48:04.167Z,0.00
2023-01-15T05:49:03.122Z,0.00
2023-01-15T05:50:03.216Z,0.00
2023-01-15T05:51:07.109Z,0.00
2023-01-15T05:52:03.141Z,0.00
2023-01-15T05:53:03.075Z,0.00
2023-01-15T05:54:03.359Z,0.00
2023-01-15T05:55:04.016Z,0.00
2023-01-15T05:56:03.131Z,0.00
2023-01-15T05:57:03.359Z,0.00
2023-01-15T05:58:03.020Z,0.00
2023-01-15T05:59:14.533Z,0.00
2023-01-15T06:00:03.278Z,0.00
2023-01-15T06:01:03.042Z,0.00
2023-01-15T06:02:03.104Z,0.00
2023-01-15T06:03:02.996Z,0.00
2023-01-15T06:04:03.052Z,0.00
2023-01-15T06:05:03.222Z,0.00
2023-01-15T06:06:06.942Z,0.00
2023-01-15T06:07:02.925Z,0.00
2023-01-15T06:08:02.915Z,0.00
2023-01-15T06:09:02.864Z,0.00
2023-01-15T06:10:02.875Z,0.00
2023-01-15T06:11:02.862Z,0.00
2023-01-15T06:12:02.844Z,0.00
2023-01-15T06:13:02.835Z,0.00
2023-01-15T06:14:02.856Z,0.00
2023-01-15T06:15:02.808Z,0.00
2023-01-15T06:16:02.827Z,0.00
2023-01-15T06:17:02.797Z,0.00
2023-01-15T06:18:02.788Z,0.00
2023-01-15T06:19:02.756Z,0.00
2023-01-15T06:20:03.033Z,0.00
2023-01-15T06:21:02.744Z,0.00
2023-01-15T06:22:02.726Z,0.00
2023-01-15T06:23:02.709Z,0.00
2023-01-15T06:24:02.728Z,0.00
2023-01-15T06:25:02.709Z,0.00
2023-01-15T06:26:03.038Z,0.00
2023-01-15T06:27:02.664Z,0.00
2023-01-15T06:28:02.678Z,0.00
2023-01-15T06:29:02.672Z,0.00
2023-01-15T06:30:02.643Z,0.00
2023-01-15T06:31:02.692Z,0.00
2023-01-15T06:32:02.620Z,0.00
2023-01-15T06:33:02.615Z,0.00
2023-01-15T06:34:04.376Z,0.00
2023-01-15T06:35:02.578Z,0.00
2023-01-15T06:36:02.560Z,0.00
2023-01-15T06:37:02.550Z,0.00
2023-01-15T06:38:02.843Z,0.00
2023-01-15T06:39:05.096Z,0.00
2023-01-15T06:40:02.511Z,0.00
2023-01-15T06:41:02.493Z,0.00
2023-01-15T06:42:02.506Z,0.00
2023-01-15T06:43:02.482Z,0.00
2023-01-15T06:44:02.809Z,0.00
2023-01-15T06:45:02.458Z,0.00
2023-01-15T06:46:02.426Z,0.00
2023-01-15T06:47:02.414Z,0.00
2023-01-15T06:48:02.693Z,0.00
2023-01-15T06:49:02.408Z,0.00
2023-01-15T06:50:02.418Z,0.00
2023-01-15T06:51:02.635Z,0.00
2023-01-15T06:52:02.355Z,0.00
2023-01-15T06:53:02.362Z,0.00
2023-01-15T06:54:02.343Z,0.00
2023-01-15T06:55:02.316Z,1.00
2023-01-15T06:56:02.405Z,1.00
2023-01-15T06:57:02.585Z,1.00
2023-01-15T06:58:02.282Z,1.00
2023-01-15T06:59:02.279Z,1.00
2023-01-15T07:00:02.264Z,1.00
2023-01-15T07:01:02.291Z,2.00
2023-01-15T07:02:02.523Z,2.00
2023-01-15T07:03:02.234Z,2.00
2023-01-15T07:04:02.271Z,4.00
2023-01-15T07:05:02.468Z,4.00
2023-01-15T07:06:02.189Z,4.00
2023-01-15T07:07:02.198Z,7.00
2023-01-15T07:08:02.468Z,6.00
2023-01-15T07:09:02.154Z,10.00
2023-01-15T07:10:02.157Z,16.00
2023-01-15T07:11:02.394Z,15.00
2023-01-15T07:12:02.123Z,18.00
2023-01-15T07:13:02.385Z,22.00
2023-01-15T07:14:02.123Z,26.00
2023-01-15T07:15:02.097Z,31.00
2023-01-15T07:16:02.089Z,34.00
2023-01-15T07:17:02.061Z,42.00
2023-01-15T07:18:02.041Z,49.00
2023-01-15T07:19:02.044Z,57.00
2023-01-15T07:20:02.035Z,66.00
2023-01-15T07:21:02.012Z,81.00
2023-01-15T07:22:02.002Z,89.00
2023-01-15T07:23:01.972Z,98.00
2023-01-15T07:24:02.001Z,113.00
2023-01-15T07:25:02.223Z,124.00
2023-01-15T07:26:02.043Z,138.00
2023-01-15T07:27:01.935Z,151.00
2023-01-15T07:28:01.913Z,167.00
2023-01-15T07:29:01.911Z,183.00
2023-01-15T07:30:03.111Z,201.00
2023-01-15T07:31:01.930Z,219.00
2023-01-15T07:32:01.901Z,241.00
2023-01-15T07:33:01.863Z,264.00
2023-01-15T07:34:01.835Z,282.00
2023-01-15T07:35:01.840Z,304.00
2023-01-15T07:36:01.824Z,324.00
2023-01-15T07:37:03.564Z,346.00
2023-01-15T07:38:01.892Z,367.00
2023-01-15T07:39:01.777Z,394.00
2023-01-15T07:40:01.794Z,417.00
2023-01-15T07:41:01.779Z,442.00
2023-01-15T07:42:01.768Z,471.00
2023-01-15T07:43:01.735Z,503.00
2023-01-15T07:44:01.766Z,537.00
2023-01-15T07:45:01.721Z,566.00
2023-01-15T07:46:01.760Z,596.00
2023-01-15T07:47:01.685Z,624.00
2023-01-15T07:48:01.677Z,647.00
2023-01-15T07:49:01.673Z,672.00
2023-01-15T07:50:01.779Z,681.00
2023-01-15T07:51:01.649Z,685.00
2023-01-15T07:52:01.632Z,686.00
2023-01-15T07:53:01.930Z,687.00
2023-01-15T07:54:01.611Z,695.00
2023-01-15T07:55:01.587Z,701.00
2023-01-15T07:56:01.598Z,712.00
2023-01-15T07:57:01.840Z,727.00
2023-01-15T07:58:01.552Z,753.00
2023-01-15T07:59:01.553Z,789.00
2023-01-15T08:00:01.530Z,817.00
2023-01-15T08:01:01.646Z,836.00
2023-01-15T08:02:01.703Z,845.00
2023-01-15T08:03:01.537Z,850.00
2023-01-15T08:04:01.794Z,853.00
2023-01-15T08:05:01.476Z,852.00
2023-01-15T08:06:01.452Z,843.00
2023-01-15T08:07:01.489Z,809.00
2023-01-15T08:08:01.464Z,818.00
2023-01-15T08:09:01.445Z,836.00
2023-01-15T08:10:01.684Z,846.00
2023-01-15T08:11:01.405Z,880.00
2023-01-15T08:12:01.378Z,924.00
2023-01-15T08:13:01.379Z,960.00
2023-01-15T08:14:01.463Z,973.00
2023-01-15T08:15:01.349Z,955.00
2023-01-15T08:16:01.352Z,921.00
2023-01-15T08:17:01.315Z,912.00
2023-01-15T08:18:01.317Z,954.00
2023-01-15T08:19:01.297Z,909.00
2023-01-15T08:20:01.312Z,881.00
2023-01-15T08:21:01.280Z,891.00
2023-01-15T08:22:01.250Z,901.00
2023-01-15T08:23:01.247Z,872.00
2023-01-15T08:24:01.227Z,830.00
2023-01-15T08:25:01.239Z,839.00
2023-01-15T08:26:01.258Z,852.00
2023-01-15T08:27:01.209Z,881.00
2023-01-15T08:28:01.182Z,950.00
2023-01-15T08:29:01.189Z,997.00
2023-01-15T08:30:01.167Z,1083.00
2023-01-15T08:31:01.458Z,1112.00
2023-01-15T08:32:03.268Z,1117.00
2023-01-15T08:33:01.149Z,1184.00
2023-01-15T08:34:01.100Z,1198.00
2023-01-15T08:35:01.127Z,1169.00
2023-01-15T08:36:01.089Z,1170.00
2023-01-15T08:37:01.356Z,1219.00
2023-01-15T08:38:01.170Z,1258.00
2023-01-15T08:39:01.069Z,1268.00
2023-01-15T08:40:01.060Z,1335.00
2023-01-15T08:41:01.025Z,1379.00
2023-01-15T08:42:01.028Z,1440.00
2023-01-15T08:43:01.012Z,1531.00
2023-01-15T08:44:01.148Z,1631.00
2023-01-15T08:45:00.980Z,1779.00
2023-01-15T08:46:01.011Z,1992.00
2023-01-15T08:47:00.975Z,1899.00
2023-01-15T08:48:00.947Z,2120.00
2023-01-15T08:49:00.954Z,2262.00
2023-01-15T08:50:00.942Z,2361.00
2023-01-15T08:51:00.919Z,2496.00
2023-01-15T08:52:00.906Z,2484.00
2023-01-15T08:53:00.895Z,2563.00
2023-01-15T08:54:00.857Z,2651.00
2023-01-15T08:55:00.911Z,2569.00
2023-01-15T08:56:00.901Z,2568.00
2023-01-15T08:57:00.842Z,2790.00
2023-01-15T08:58:00.821Z,2740.00
2023-01-15T08:59:00.832Z,2829.00
2023-01-15T09:00:00.798Z,3098.00
2023-01-15T09:01:00.948Z,3394.00
2023-01-15T09:02:00.996Z,3473.00
2023-01-15T09:03:00.772Z,3614.00
2023-01-15T09:04:00.749Z,3730.00
2023-01-15T09:05:00.793Z,3537.00
2023-01-15T09:06:00.741Z,3914.00
2023-01-15T09:07:00.767Z,3760.00
2023-01-15T09:08:00.735Z,3930.00
2023-01-15T09:09:01.443Z,4153.00
2023-01-15T09:10:00.680Z,4012.00
2023-01-15T09:11:00.671Z,3868.00
2023-01-15T09:12:00.649Z,3715.00
2023-01-15T09:13:00.642Z,3869.00
2023-01-15T09:14:00.929Z,4121.00
2023-01-15T09:15:03.367Z,4147.00
2023-01-15T09:16:00.609Z,4120.00
2023-01-15T09:17:00.596Z,4244.00
2023-01-15T09:18:00.597Z,4368.00
2023-01-15T09:19:00.895Z,4557.00
2023-01-15T09:20:00.607Z,4644.00
2023-01-15T09:21:00.544Z,4701.00
2023-01-15T09:22:00.526Z,5260.00
2023-01-15T09:23:00.501Z,4852.00
2023-01-15T09:24:00.482Z,5271.00
2023-01-15T09:25:00.479Z,4839.00
2023-01-15T09:26:00.508Z,5058.00
2023-01-15T09:27:00.478Z,5019.00
2023-01-15T09:28:00.452Z,4821.00
2023-01-15T09:29:00.439Z,4870.00
2023-01-15T09:30:00.425Z,5113.00
2023-01-15T09:31:00.470Z,4939.00
2023-01-15T09:32:00.419Z,5065.00
2023-01-15T09:33:00.383Z,5906.00
2023-01-15T09:34:00.641Z,5971.00
2023-01-15T09:35:00.408Z,5353.00
2023-01-15T09:36:00.368Z,5356.00
2023-01-15T09:37:00.362Z,5419.00
2023-01-15T09:38:00.349Z,5984.00
2023-01-15T09:39:00.305Z,5932.00
2023-01-15T09:40:00.283Z,6035.00
2023-01-15T09:41:00.284Z,6016.00
2023-01-15T09:42:00.261Z,5312.00
2023-01-15T09:43:00.278Z,5116.00
2023-01-15T09:44:00.271Z,5441.00
2023-01-15T09:45:00.256Z,5220.00
2023-01-15T09:46:00.288Z,5384.00
2023-01-15T09:47:00.210Z,6236.00
2023-01-15T09:48:00.182Z,5457.00
2023-01-15T09:49:00.202Z,5316.00
2023-01-15T09:50:00.195Z,5171.00
2023-01-15T09:51:00.184Z,5445.00
2023-01-15T09:52:00.164Z,5572.00
2023-01-15T09:53:00.138Z,5479.00
2023-01-15T09:54:00.104Z,6421.00
2023-01-15T09:55:00.116Z,6664.00
2023-01-15T09:56:00.220Z,6284.00
2023-01-15T09:57:00.100Z,5855.00
2023-01-15T09:58:00.063Z,6440.00
2023-01-15T09:59:00.078Z,6361.00
2023-01-15T10:00:00.045Z,5418.00
2023-01-15T10:01:00.080Z,5654.00
2023-01-15T10:02:00.096Z,5283.00
2023-01-15T10:03:00.072Z,5354.00
2023-01-15T10:04:00.078Z,5379.00
2023-01-15T10:04:59.975Z,5063.00
2023-01-15T10:05:59.954Z,5076.00
2023-01-15T10:06:59.947Z,6101.00
2023-01-15T10:08:00.051Z,5889.00
2023-01-15T10:08:59.931Z,6051.00
2023-01-15T10:09:59.900Z,5601.00
2023-01-15T10:10:59.900Z,5581.00
2023-01-15T10:11:59.886Z,5656.00
2023-01-15T10:12:59.879Z,5557.00
2023-01-15T10:13:59.880Z,5473.00
2023-01-15T10:14:59.857Z,5561.00
2023-01-15T10:15:59.879Z,5523.00
2023-01-15T10:16:59.854Z,5633.00
2023-01-15T10:17:59.818Z,6935.00
2023-01-15T10:19:00.108Z,6249.00
2023-01-15T10:19:59.809Z,7161.00
2023-01-15T10:21:00.066Z,7508.00
2023-01-15T10:21:59.751Z,7875.00
2023-01-15T10:22:59.990Z,8133.00
2023-01-15T10:23:59.733Z,7186.00
2023-01-15T10:24:59.710Z,6963.00
2023-01-15T10:25:59.740Z,7116.00
2023-01-15T10:26:59.686Z,7440.00
2023-01-15T10:27:59.684Z,7362.00
2023-01-15T10:28:59.664Z,6578.00
2023-01-15T10:29:59.924Z,6657.00
2023-01-15T10:30:59.698Z,6282.00
2023-01-15T10:31:59.661Z,6575.00
2023-01-15T10:33:03.440Z,5890.00
2023-01-15T10:33:59.614Z,6625.00
2023-01-15T10:34:59.597Z,7059.00
2023-01-15T10:35:59.590Z,5729.00
2023-01-15T10:36:59.565Z,6313.00
2023-01-15T10:37:59.572Z,5909.00
2023-01-15T10:38:59.858Z,6760.00
2023-01-15T10:39:59.529Z,5694.00
2023-01-15T10:40:59.519Z,6791.00
2023-01-15T10:41:59.507Z,5890.00
2023-01-15T10:42:59.490Z,5551.00
2023-01-15T10:43:59.531Z,5567.00
2023-01-15T10:44:59.470Z,6317.00
2023-01-15T10:45:59.501Z,5664.00
2023-01-15T10:46:59.463Z,5560.00
2023-01-15T10:47:59.436Z,5359.00
2023-01-15T10:48:59.419Z,5214.00
2023-01-15T10:49:59.441Z,5437.00
2023-01-15T10:50:59.394Z,5523.00
2023-01-15T10:51:59.383Z,5675.00
2023-01-15T10:52:59.355Z,5476.00
2023-01-15T10:53:59.355Z,4998.00
2023-01-15T10:54:59.343Z,5149.00
2023-01-15T10:55:59.365Z,4446.00
2023-01-15T10:56:59.315Z,5524.00
2023-01-15T10:58:09.988Z,6960.00
2023-01-15T10:59:00.295Z,5394.00
2023-01-15T10:59:59.279Z,5565.00
2023-01-15T11:00:59.286Z,5795.00
2023-01-15T11:01:59.489Z,5736.00
2023-01-15T11:02:59.274Z,5608.00
2023-01-15T11:03:59.218Z,5803.00
2023-01-15T11:04:59.208Z,6212.00
2023-01-15T11:05:59.198Z,6775.00
2023-01-15T11:06:59.194Z,6614.00
2023-01-15T11:08:39.426Z,6464.00
2023-01-15T11:09:10.237Z,6399.00
2023-01-15T11:10:01.122Z,6620.00
2023-01-15T11:10:59.130Z,6756.00
2023-01-15T11:11:59.423Z,6349.00
2023-01-15T11:12:59.372Z,7497.00
2023-01-15T11:13:59.136Z,6618.00
2023-01-15T11:14:59.099Z,6292.00
2023-01-15T11:15:59.089Z,7263.00
2023-01-15T11:16:59.058Z,6144.00
2023-01-15T11:17:59.044Z,6072.00
2023-01-15T11:18:59.043Z,6050.00
2023-01-15T11:19:59.314Z,5454.00
2023-01-15T11:20:59.025Z,4911.00
2023-01-15T11:21:59.017Z,4667.00
2023-01-15T11:22:58.970Z,4596.00
2023-01-15T11:23:58.954Z,5542.00
2023-01-15T11:24:58.939Z,8174.00
2023-01-15T11:25:59.087Z,6957.00
2023-01-15T11:26:58.938Z,5360.00
2023-01-15T11:27:58.915Z,4391.00
2023-01-15T11:28:58.899Z,5093.00
2023-01-15T11:29:58.886Z,7046.00
2023-01-15T11:31:02.917Z,5156.00
2023-01-15T11:31:58.978Z,5125.00
2023-01-15T11:32:59.135Z,4998.00
2023-01-15T11:33:58.864Z,4845.00
2023-01-15T11:34:58.831Z,3908.00
2023-01-15T11:35:58.887Z,3842.00
2023-01-15T11:36:58.782Z,4444.00
2023-01-15T11:37:58.897Z,4644.00
2023-01-15T11:38:58.766Z,4682.00
2023-01-15T11:40:02.801Z,4780.00
2023-01-15T11:40:58.787Z,4892.00
2023-01-15T11:41:58.750Z,4426.00
2023-01-15T11:42:58.724Z,3651.00
2023-01-15T11:43:59.192Z,3635.00
2023-01-15T11:44:58.691Z,3866.00
2023-01-15T11:45:58.747Z,3444.00
2023-01-15T11:46:58.682Z,3153.00
2023-01-15T11:47:58.663Z,3061.00
2023-01-15T11:48:58.644Z,3555.00
2023-01-15T11:49:58.664Z,3365.00
2023-01-15T11:50:58.625Z,3659.00
2023-01-15T11:51:58.607Z,4220.00
2023-01-15T11:53:02.566Z,4632.00
2023-01-15T11:53:58.580Z,4526.00
2023-01-15T11:54:59.245Z,4741.00
2023-01-15T11:55:58.608Z,4700.00
2023-01-15T11:56:58.546Z,4380.00
2023-01-15T11:57:58.537Z,4244.00
2023-01-15T11:58:58.596Z,4393.00
2023-01-15T11:59:58.847Z,4503.00
2023-01-15T12:00:58.564Z,4394.00
2023-01-15T12:01:58.607Z,4782.00
2023-01-15T12:02:58.476Z,5162.00
2023-01-15T12:04:02.597Z,5429.00
2023-01-15T12:04:58.464Z,5147.00
2023-01-15T12:05:58.456Z,4955.00
2023-01-15T12:07:02.506Z,4782.00
2023-01-15T12:07:58.542Z,4736.00
2023-01-15T12:08:58.398Z,5342.00
2023-01-15T12:09:58.662Z,6378.00
2023-01-15T12:10:58.392Z,6693.00
2023-01-15T12:11:58.370Z,6323.00
2023-01-15T12:12:59.134Z,6785.00
2023-01-15T12:13:58.372Z,7823.00
2023-01-15T12:14:58.329Z,8634.00
2023-01-15T12:16:00.108Z,8619.00
2023-01-15T12:16:58.294Z,8105.00
2023-01-15T12:17:58.324Z,7981.00
2023-01-15T12:18:58.280Z,7841.00
2023-01-15T12:19:58.566Z,6368.00
2023-01-15T12:20:58.511Z,5969.00
2023-01-15T12:21:58.238Z,5913.00
2023-01-15T12:22:58.225Z,6371.00
2023-01-15T12:23:58.208Z,8436.00
2023-01-15T12:24:58.202Z,9017.00
2023-01-15T12:25:58.233Z,7397.00
2023-01-15T12:26:58.190Z,9139.00
2023-01-15T12:27:58.464Z,8115.00
2023-01-15T12:28:58.146Z,5455.00
2023-01-15T12:29:58.134Z,5088.00
2023-01-15T12:30:58.465Z,4668.00
2023-01-15T12:31:58.397Z,4619.00
2023-01-15T12:33:02.048Z,5882.00
2023-01-15T12:33:58.356Z,6770.00
2023-01-15T12:34:58.080Z,9027.00
2023-01-15T12:35:58.080Z,7986.00
2023-01-15T12:36:58.080Z,7654.00
2023-01-15T12:37:58.048Z,5793.00
2023-01-15T12:38:58.039Z,5654.00
2023-01-15T12:39:58.015Z,5726.00
2023-01-15T12:40:57.990Z,5283.00
2023-01-15T12:41:57.998Z,5088.00
2023-01-15T12:42:58.022Z,5068.00
2023-01-15T12:44:01.762Z,5147.00
2023-01-15T12:44:57.957Z,5005.00
2023-01-15T12:45:57.948Z,4810.00
2023-01-15T12:46:58.020Z,4431.00
2023-01-15T12:47:57.960Z,3909.00
2023-01-15T12:48:59.391Z,4537.00